Time;durP1;ratioP1;P1;durP2;ratioP2;P2;SDS_P1;SDS_P2;PMS_P1;PMS_P2;Temp;Humidity;BMP_temperature;BMP_pressure;BME280_temperature;BME280_humidity;BME280_pressure;Samples;Min_cycle;Max_cycle;Signal;HPM_P1;HPM_P2
2022/07/16 00:03:46;;;;;;;5.73;4.67;;;;;;;16.85;100.00;100689.28;1745517;81;21619;-42
2022/07/16 00:06:14;;;;;;;10.00;4.87;;;;;;;16.85;100.00;100689.28;1747901;81;21378;-42
2022/07/16 00:08:41;;;;;;;10.60;4.62;;;;;;;16.82;100.00;100690.28;1746144;80;21136;-42
2022/07/16 00:11:09;;;;;;;4.55;4.12;;;;;;;16.80;100.00;100685.57;1745120;81;20939;-42
2022/07/16 00:13:36;;;;;;;13.43;4.45;;;;;;;16.79;100.00;100682.09;1744175;81;21299;-42
2022/07/16 00:16:05;;;;;;;9.35;4.25;;;;;;;16.77;100.00;100688.28;1748021;81;20944;-41
2022/07/16 00:21:18;;;;;;;10.80;5.00;;;;;;;16.73;100.00;100693.25;1739960;81;21095;-42
2022/07/16 00:23:44;;;;;;;6.37;4.28;;;;;;;16.71;100.00;100684.17;1740203;81;21063;-42
2022/07/16 00:26:11;;;;;;;5.33;4.40;;;;;;;16.70;100.00;100688.15;1732145;81;20963;-42
2022/07/16 00:28:38;;;;;;;7.47;4.55;;;;;;;16.68;100.00;100686.92;1733605;81;21504;-42
2022/07/16 00:31:05;;;;;;;4.22;3.92;;;;;;;16.67;100.00;100689.11;1732604;81;20960;-42
2022/07/16 00:33:32;;;;;;;8.03;4.20;;;;;;;16.66;100.00;100689.58;1736012;81;21891;-42
2022/07/16 00:35:58;;;;;;;6.97;4.50;;;;;;;16.65;100.00;100690.49;1741340;81;20940;-42
2022/07/16 00:38:25;;;;;;;4.60;4.20;;;;;;;16.65;100.00;100693.55;1737206;81;21055;-42
2022/07/16 00:40:52;;;;;;;5.25;4.30;;;;;;;16.63;100.00;100693.63;1731158;81;20944;-42
2022/07/16 00:43:18;;;;;;;10.98;4.20;;;;;;;16.62;100.00;100691.06;1733714;81;20893;-42
2022/07/16 00:45:45;;;;;;;5.37;4.10;;;;;;;16.60;100.00;100685.05;1693417;83;22228;-42
2022/07/16 00:48:12;;;;;;;9.35;4.08;;;;;;;16.59;100.00;100692.05;1727444;81;20983;-42
2022/07/16 00:50:40;;;;;;;7.65;4.20;;;;;;;16.56;100.00;100688.27;1733442;81;21514;-42
2022/07/16 00:53:10;;;;;;;9.15;4.35;;;;;;;16.55;100.00;100692.23;1736515;81;20975;-42
2022/07/16 00:55:38;;;;;;;6.33;3.77;;;;;;;16.53;100.00;100694.89;1740168;81;21031;-41
2022/07/16 00:58:05;;;;;;;5.17;3.83;;;;;;;16.50;100.00;100696.32;1731946;81;21243;-41
2022/07/16 01:00:32;;;;;;;8.88;3.92;;;;;;;16.50;100.00;100701.55;1734408;80;21470;-41
2022/07/16 01:02:59;;;;;;;11.40;4.42;;;;;;;16.47;100.00;100706.89;1740782;81;21023;-41
2022/07/16 01:05:26;;;;;;;3.95;3.60;;;;;;;16.46;100.00;100697.36;1735149;81;21015;-41
2022/07/16 01:07:53;;;;;;;4.50;4.08;;;;;;;16.46;100.00;100698.66;1740757;81;20944;-41
2022/07/16 01:10:20;;;;;;;4.83;3.80;;;;;;;16.41;100.00;100696.22;1701385;83;21893;-41
2022/07/16 01:12:48;;;;;;;4.58;4.00;;;;;;;16.40;100.00;100700.22;1733059;82;21008;-41
2022/07/16 01:15:17;;;;;;;6.75;4.12;;;;;;;16.37;100.00;100692.89;1708973;82;20949;-41
2022/07/16 01:17:44;;;;;;;5.75;4.03;;;;;;;16.35;100.00;100696.02;1696279;84;20913;-41
2022/07/16 01:20:11;;;;;;;5.83;3.90;;;;;;;16.31;100.00;100697.06;1739508;81;20993;-41
2022/07/16 01:22:39;;;;;;;4.47;4.10;;;;;;;16.29;100.00;100700.16;1728260;81;21159;-41
2022/07/16 01:25:10;;;;;;;10.70;4.42;;;;;;;16.26;100.00;100696.36;1735086;81;20945;-41
2022/07/16 01:27:36;;;;;;;5.08;4.10;;;;;;;16.25;100.00;100702.97;1733205;81;21006;-41
2022/07/16 01:30:08;;;;;;;6.47;3.77;;;;;;;16.21;100.00;100705.70;1731579;81;20986;-41
2022/07/16 01:32:37;;;;;;;9.55;4.20;;;;;;;16.19;100.00;100702.73;1741690;81;21000;-41
2022/07/16 01:35:05;;;;;;;4.70;4.10;;;;;;;16.17;100.00;100701.51;1738717;81;21162;-41
2022/07/16 01:37:32;;;;;;;6.47;3.70;;;;;;;16.15;100.00;100701.99;1710970;81;20967;-41
2022/07/16 01:39:58;;;;;;;10.98;4.08;;;;;;;16.15;100.00;100714.22;1729265;81;21378;-41
2022/07/16 01:42:25;;;;;;;9.28;4.08;;;;;;;16.13;100.00;100711.65;1734577;81;20996;-41
2022/07/16 01:44:52;;;;;;;4.97;3.95;;;;;;;16.11;100.00;100708.72;1736198;81;21590;-41
2022/07/16 01:47:19;;;;;;;7.50;3.75;;;;;;;16.09;100.00;100699.18;1742917;81;21208;-41
2022/07/16 01:49:46;;;;;;;7.55;3.90;;;;;;;16.07;100.00;100704.92;1672619;83;20954;-41
2022/07/16 01:52:18;;;;;;;5.00;3.72;;;;;;;16.06;100.00;100703.22;1734890;82;20956;-41
2022/07/16 01:54:49;;;;;;;4.22;3.92;;;;;;;16.05;100.00;100712.40;1733302;81;21000;-41
2022/07/16 01:57:18;;;;;;;4.22;3.55;;;;;;;16.02;100.00;100715.96;1729583;81;21513;-40
2022/07/16 01:59:44;;;;;;;8.00;3.72;;;;;;;16.01;100.00;100711.66;1732981;81;21128;-41
2022/07/16 02:02:12;;;;;;;5.62;3.65;;;;;;;16.00;100.00;100713.86;1742811;81;20996;-40
2022/07/16 02:04:40;;;;;;;11.08;3.67;;;;;;;15.99;100.00;100717.38;1746387;81;20956;-40
2022/07/16 02:07:07;;;;;;;5.80;3.90;;;;;;;15.97;100.00;100721.81;1746168;81;21015;-41
2022/07/16 02:09:35;;;;;;;5.90;3.70;;;;;;;15.95;100.00;100724.94;1737483;81;20968;-41
2022/07/16 02:12:03;;;;;;;6.35;3.70;;;;;;;15.92;100.00;100726.36;1739598;81;21246;-40
2022/07/16 02:14:30;;;;;;;11.10;3.92;;;;;;;15.90;100.00;100727.70;1733091;81;21367;-40
2022/07/16 02:16:58;;;;;;;4.78;4.08;;;;;;;15.89;100.00;100729.08;1730283;81;20954;-41
2022/07/16 02:19:24;;;;;;;8.88;3.50;;;;;;;15.87;100.00;100725.65;1735843;81;21026;-41
2022/07/16 02:21:51;;;;;;;4.00;3.70;;;;;;;15.85;100.00;100724.39;1737947;81;20968;-42
2022/07/16 02:24:17;;;;;;;7.33;4.03;;;;;;;15.85;100.00;100727.47;1699889;83;21145;-42
2022/07/16 02:26:44;;;;;;;5.10;4.20;;;;;;;15.83;100.00;100726.67;1706819;83;20956;-41
2022/07/16 02:29:11;;;;;;;10.13;4.45;;;;;;;15.80;100.00;100727.63;1674913;84;21039;-41
2022/07/16 02:31:39;;;;;;;11.12;4.40;;;;;;;15.78;100.00;100727.66;1678018;84;21012;-41
2022/07/16 02:34:05;;;;;;;4.87;3.72;;;;;;;15.76;100.00;100724.26;1679457;85;20912;-41
2022/07/16 02:36:32;;;;;;;9.15;4.15;;;;;;;15.76;100.00;100728.64;1748379;81;21537;-41
2022/07/16 02:38:59;;;;;;;6.50;4.55;;;;;;;15.75;100.00;100735.61;1740050;82;20971;-41
2022/07/16 02:41:25;;;;;;;9.73;4.08;;;;;;;15.77;100.00;100735.56;1741920;81;21036;-42
2022/07/16 02:43:52;;;;;;;10.48;4.83;;;;;;;15.75;100.00;100739.52;1748842;81;20946;-41
2022/07/16 02:46:19;;;;;;;10.58;4.45;;;;;;;15.74;100.00;100746.95;1746030;81;21014;-41
2022/07/16 02:48:46;;;;;;;7.55;3.87;;;;;;;15.73;100.00;100745.25;1739961;82;21969;-41
2022/07/16 02:51:14;;;;;;;6.62;4.30;;;;;;;15.74;100.00;100745.64;1737329;81;21490;-42
2022/07/16 02:53:41;;;;;;;7.55;3.87;;;;;;;15.74;100.00;100743.03;1745619;81;20936;-42
2022/07/16 02:56:08;;;;;;;6.30;4.03;;;;;;;15.76;100.00;100743.83;1744895;81;21007;-42
2022/07/16 02:58:34;;;;;;;5.72;4.50;;;;;;;15.75;100.00;100743.44;1739730;81;21102;-41
2022/07/16 03:01:02;;;;;;;8.78;4.12;;;;;;;15.73;100.00;100739.20;1737100;81;21836;-41
2022/07/16 03:03:28;;;;;;;6.53;4.70;;;;;;;15.72;100.00;100744.85;1745800;81;21015;-41
2022/07/16 03:05:55;;;;;;;4.87;4.10;;;;;;;15.71;100.00;100741.84;1744291;81;20979;-41
2022/07/16 03:08:21;;;;;;;9.20;4.35;;;;;;;15.71;100.00;100740.54;1735891;82;20896;-41
2022/07/16 03:10:48;;;;;;;9.35;4.00;;;;;;;15.71;100.00;100734.48;1740815;81;20983;-42
2022/07/16 03:13:15;;;;;;;6.40;4.47;;;;;;;15.70;100.00;100737.53;1746996;81;22126;-41
2022/07/16 03:15:43;;;;;;;6.12;4.67;;;;;;;15.69;100.00;100739.75;1738583;81;21015;-41
2022/07/16 03:18:10;;;;;;;10.13;4.35;;;;;;;15.69;100.00;100747.57;1752596;81;20959;-41
2022/07/16 03:20:38;;;;;;;7.78;4.85;;;;;;;15.69;100.00;100754.09;1741121;81;22169;-41
2022/07/16 03:23:05;;;;;;;10.10;4.50;;;;;;;15.67;100.00;100750.69;1734772;82;21034;-41
2022/07/16 03:25:32;;;;;;;12.28;4.70;;;;;;;15.68;100.00;100758.08;1743644;81;21144;-42
2022/07/16 03:27:59;;;;;;;6.05;4.40;;;;;;;15.66;100.00;100762.03;1736869;82;20924;-41
2022/07/16 03:30:26;;;;;;;6.40;4.70;;;;;;;15.63;100.00;100764.76;1735708;81;20932;-41
2022/07/16 03:32:52;;;;;;;11.38;4.60;;;;;;;15.64;100.00;100767.77;1746517;81;20987;-42
2022/07/16 03:35:19;;;;;;;5.22;4.00;;;;;;;15.70;100.00;100766.23;1747395;81;21023;-41
2022/07/16 03:40:32;;;;;;;12.37;4.62;;;;;;;15.86;100.00;100780.06;1745796;81;20975;-41
2022/07/16 03:43:00;;;;;;;6.15;4.20;;;;;;;15.94;100.00;100775.45;1745932;81;21019;-41
2022/07/16 03:45:28;;;;;;;4.22;3.92;;;;;;;16.02;100.00;100779.09;1742666;81;21023;-41
2022/07/16 03:47:54;;;;;;;6.55;3.70;;;;;;;16.07;100.00;100771.50;1747414;81;21556;-41
2022/07/16 03:50:21;;;;;;;5.03;4.10;;;;;;;16.14;100.00;100772.10;1738378;81;21203;-41
2022/07/16 03:52:48;;;;;;;8.28;4.08;;;;;;;16.23;100.00;100775.70;1741295;81;20947;-41
2022/07/16 03:55:15;;;;;;;6.28;3.47;;;;;;;16.33;100.00;100780.13;1731843;81;21051;-41
2022/07/16 03:57:43;;;;;;;5.67;3.98;;;;;;;16.43;100.00;100781.95;1740182;82;21023;-40
2022/07/16 04:00:11;;;;;;;4.58;3.58;;;;;;;16.50;100.00;100783.84;1737184;81;20956;-41
2022/07/16 04:02:39;;;;;;;8.73;4.00;;;;;;;16.52;100.00;100783.33;1745729;81;21414;-41
2022/07/16 04:05:07;;;;;;;5.78;3.40;;;;;;;16.51;100.00;100782.49;1739618;81;20947;-41
2022/07/16 04:07:34;;;;;;;5.20;3.83;;;;;;;16.51;100.00;100774.66;1708909;82;20943;-41
2022/07/16 04:10:01;;;;;;;9.85;3.87;;;;;;;16.56;100.00;100775.80;1736212;81;21040;-41
2022/07/16 04:12:30;;;;;;;4.30;3.60;;;;;;;16.68;100.00;100778.39;1700219;83;20999;-41
2022/07/16 04:14:57;;;;;;;5.72;3.30;;;;;;;16.77;100.00;100784.55;1680360;84;21202;-41
2022/07/16 04:17:24;;;;;;;8.15;3.62;;;;;;;16.89;100.00;100791.06;1687165;84;21030;-42
2022/07/16 04:19:51;;;;;;;7.70;3.35;;;;;;;17.03;100.00;100793.16;1740219;81;20984;-41
2022/07/16 04:22:18;;;;;;;5.22;3.52;;;;;;;17.22;100.00;100799.80;1743862;81;22024;-41
2022/07/16 04:24:45;;;;;;;6.72;3.42;;;;;;;17.38;100.00;100799.17;1740572;81;21568;-41
2022/07/16 04:27:12;;;;;;;4.62;3.20;;;;;;;17.56;100.00;100794.09;1740170;81;21125;-41
2022/07/16 04:29:40;;;;;;;4.17;3.22;;;;;;;17.72;100.00;100800.83;1735294;81;20948;-41
2022/07/16 04:32:07;;;;;;;6.00;3.30;;;;;;;17.83;100.00;100805.60;1737749;81;20983;-41
2022/07/16 04:34:34;;;;;;;7.28;3.60;;;;;;;17.93;100.00;100803.80;1739171;81;20912;-43
2022/07/16 04:37:00;;;;;;;3.92;3.10;;;;;;;18.06;100.00;100804.17;1742988;81;20956;-42
2022/07/16 04:39:27;;;;;;;3.45;2.67;;;;;;;18.11;100.00;100799.17;1728259;81;21098;-42
2022/07/16 04:41:54;;;;;;;12.13;3.22;;;;;;;18.19;100.00;100811.46;1703860;83;20940;-42
2022/07/16 04:44:21;;;;;;;4.30;2.87;;;;;;;18.22;99.17;100804.33;1740425;81;21549;-42
2022/07/16 04:46:49;;;;;;;4.95;2.75;;;;;;;18.31;98.03;100804.82;1741244;81;20897;-42
2022/07/16 04:49:16;;;;;;;2.98;2.72;;;;;;;18.42;98.10;100804.33;1735016;82;21023;-42
2022/07/16 04:51:42;;;;;;;3.08;2.52;;;;;;;18.52;97.40;100818.25;1732931;81;21242;-42
2022/07/16 04:54:09;;;;;;;3.05;2.85;;;;;;;18.69;96.73;100817.08;1699691;84;20999;-42
2022/07/16 04:56:36;;;;;;;6.42;2.77;;;;;;;18.89;95.19;100811.75;1731074;81;20991;-43
2022/07/16 04:59:03;;;;;;;7.62;2.77;;;;;;;19.08;94.31;100811.73;1731261;82;20983;-43
2022/07/16 05:01:30;;;;;;;3.55;2.60;;;;;;;19.32;93.58;100821.08;1738622;81;20900;-43
2022/07/16 05:03:57;;;;;;;4.53;2.40;;;;;;;19.57;92.62;100819.86;1741144;81;21248;-43
2022/07/16 05:06:23;;;;;;;5.83;2.42;;;;;;;19.81;90.75;100813.35;1733896;81;21048;-41
2022/07/16 05:08:50;;;;;;;2.40;2.20;;;;;;;20.04;87.80;100820.53;1734832;82;21027;-40
2022/07/16 05:11:18;;;;;;;6.08;2.40;;;;;;;20.18;85.34;100817.66;1729945;81;20971;-41
2022/07/16 05:13:44;;;;;;;5.30;2.58;;;;;;;20.24;82.73;100822.12;1737650;81;20956;-42
2022/07/16 05:16:11;;;;;;;4.47;2.40;;;;;;;20.31;83.57;100819.98;1736581;81;21351;-42
2022/07/16 05:18:38;;;;;;;3.45;2.25;;;;;;;20.55;82.87;100813.02;1737992;82;21611;-41
2022/07/16 05:21:06;;;;;;;3.52;2.47;;;;;;;20.74;81.39;100812.87;1738692;81;20995;-42
2022/07/16 05:23:33;;;;;;;2.52;2.25;;;;;;;20.89;80.39;100812.52;1735950;81;21015;-41
2022/07/16 05:26:00;;;;;;;4.58;2.50;;;;;;;20.84;78.64;100810.61;1704350;82;21024;-41
2022/07/16 05:28:27;;;;;;;3.20;2.62;;;;;;;20.71;78.46;100820.08;1712479;82;21191;-42
2022/07/16 05:30:54;;;;;;;2.05;1.87;;;;;;;20.64;79.41;100819.56;1702811;82;20972;-41
2022/07/16 05:33:21;;;;;;;8.28;2.80;;;;;;;20.66;78.58;100816.37;1715969;82;20975;-42
2022/07/16 05:35:48;;;;;;;4.47;2.50;;;;;;;20.66;79.23;100825.58;1715384;82;21047;-42
2022/07/16 05:38:15;;;;;;;3.67;1.90;;;;;;;20.80;78.39;100831.42;1720157;82;20995;-42
2022/07/16 05:40:42;;;;;;;6.70;2.37;;;;;;;20.83;76.16;100829.09;1705251;82;21283;-41
2022/07/16 05:43:08;;;;;;;5.47;2.60;;;;;;;20.82;76.02;100828.23;1714158;82;21031;-41
2022/07/16 05:45:35;;;;;;;5.87;1.87;;;;;;;20.88;75.76;100823.97;1716922;82;21104;-41
2022/07/16 05:48:02;;;;;;;3.00;2.40;;;;;;;20.85;75.09;100814.94;1696952;83;21121;-42
2022/07/16 05:50:29;;;;;;;4.83;2.50;;;;;;;20.83;75.44;100812.00;1692377;83;21004;-42
2022/07/16 05:52:56;;;;;;;5.45;2.52;;;;;;;20.85;75.24;100810.99;1721340;82;21152;-43
2022/07/16 05:55:23;;;;;;;3.90;2.60;;;;;;;20.85;75.32;100819.34;1716064;82;22173;-43
2022/07/16 05:57:50;;;;;;;4.00;2.40;;;;;;;20.91;75.44;100821.61;1708623;82;21403;-43
2022/07/16 06:00:18;;;;;;;3.95;2.50;;;;;;;21.08;74.69;100819.34;1712174;82;21022;-43
2022/07/16 06:02:44;;;;;;;6.12;2.45;;;;;;;21.22;73.72;100823.84;1711173;82;21038;-42
2022/07/16 06:05:11;;;;;;;3.65;2.30;;;;;;;21.29;73.67;100818.59;1702317;83;21150;-41
2022/07/16 06:07:38;;;;;;;4.62;2.10;;;;;;;21.36;74.55;100821.72;1709731;83;21553;-41
2022/07/16 06:10:06;;;;;;;6.10;2.40;;;;;;;21.57;73.50;100820.06;1697000;83;20991;-41
2022/07/16 06:12:33;;;;;;;5.30;2.50;;;;;;;21.67;73.30;100823.41;1725655;82;20963;-42
2022/07/16 06:15:00;;;;;;;4.15;2.37;;;;;;;21.68;72.82;100821.64;1711401;82;21011;-42
2022/07/16 06:17:26;;;;;;;2.95;2.15;;;;;;;21.62;71.70;100820.66;1712777;83;21109;-42
2022/07/16 06:19:54;;;;;;;2.10;1.90;;;;;;;21.63;71.91;100827.62;1706878;83;21486;-41
2022/07/16 06:22:21;;;;;;;3.15;2.00;;;;;;;21.56;73.63;100827.58;1716341;82;21050;-42
2022/07/16 06:24:47;;;;;;;2.85;2.15;;;;;;;21.62;73.39;100829.39;1719833;82;21615;-42
2022/07/16 06:27:16;;;;;;;4.17;2.20;;;;;;;21.73;72.25;100824.84;1724133;82;20936;-42
2022/07/16 06:29:43;;;;;;;5.30;2.02;;;;;;;21.87;72.44;100825.32;1730296;81;21189;-42
2022/07/16 06:32:09;;;;;;;4.58;2.25;;;;;;;22.07;72.57;100818.83;1719546;82;20967;-41
2022/07/16 06:34:36;;;;;;;2.12;1.92;;;;;;;22.29;71.89;100816.67;1733579;82;20980;-41
2022/07/16 06:37:03;;;;;;;8.45;2.08;;;;;;;22.38;70.27;100814.31;1726809;82;20948;-41
2022/07/16 06:39:31;;;;;;;3.70;2.20;;;;;;;22.41;68.23;100816.37;1731286;82;20979;-41
2022/07/16 06:41:59;;;;;;;1.75;1.55;;;;;;;22.32;68.31;100809.40;1734113;81;21163;-41
2022/07/16 06:44:26;;;;;;;3.58;1.87;;;;;;;22.39;68.36;100817.78;1734172;81;21312;-41
2022/07/16 06:46:54;;;;;;;3.00;1.70;;;;;;;22.51;67.70;100815.73;1693745;84;21546;-41
2022/07/16 06:49:21;;;;;;;12.25;2.72;;;;;;;22.63;67.18;100821.16;1733544;81;21094;-42
2022/07/16 06:51:49;;;;;;;4.30;1.72;;;;;;;22.68;65.37;100817.30;1670948;85;21000;-43
2022/07/16 06:54:15;;;;;;;3.70;1.60;;;;;;;22.57;65.68;100823.70;1732632;82;21069;-43
2022/07/16 06:56:43;;;;;;;2.37;1.72;;;;;;;22.54;66.57;100821.27;1734054;82;20952;-43
2022/07/16 06:59:09;;;;;;;3.05;1.80;;;;;;;22.65;67.02;100817.50;1735297;82;20896;-43
2022/07/16 07:01:36;;;;;;;4.62;1.70;;;;;;;22.76;66.23;100819.91;1734980;81;21047;-43
2022/07/16 07:04:05;;;;;;;1.98;1.52;;;;;;;22.80;65.32;100822.26;1729632;80;21135;-43
2022/07/16 07:06:31;;;;;;;2.12;1.32;;;;;;;22.87;63.88;100814.80;1738057;80;21266;-43
2022/07/16 07:08:58;;;;;;;1.27;1.17;;;;;;;22.91;63.51;100812.33;1736319;81;20969;-42
2022/07/16 07:11:26;;;;;;;2.45;1.60;;;;;;;22.93;63.25;100810.89;1730823;81;21063;-42
2022/07/16 07:13:54;;;;;;;4.42;1.90;;;;;;;23.02;62.77;100813.41;1739947;80;20967;-42
2022/07/16 07:16:20;;;;;;;1.52;1.22;;;;;;;23.10;63.68;100813.73;1730008;82;21022;-42
2022/07/16 07:18:47;;;;;;;2.30;1.40;;;;;;;23.28;62.90;100809.55;1742556;80;21223;-42
2022/07/16 07:21:14;;;;;;;3.22;1.60;;;;;;;23.36;62.17;100813.83;1740623;81;21038;-42
2022/07/16 07:23:40;;;;;;;1.85;1.50;;;;;;;23.35;61.55;100810.36;1739385;82;20972;-42
2022/07/16 07:26:07;;;;;;;5.85;2.00;;;;;;;23.46;60.64;100804.36;1730131;80;21473;-42
2022/07/16 07:28:33;;;;;;;1.87;1.65;;;;;;;23.65;60.77;100808.40;1740314;81;21565;-43
2022/07/16 07:31:00;;;;;;;4.05;1.65;;;;;;;23.83;58.06;100811.08;1749644;81;21053;-44
2022/07/16 07:33:27;;;;;;;4.22;1.20;;;;;;;23.90;58.43;100798.78;1745803;81;21038;-42
2022/07/16 07:35:54;;;;;;;2.15;1.42;;;;;;;24.00;57.58;100810.39;1738063;81;20994;-42
2022/07/16 07:38:22;;;;;;;1.05;1.00;;;;;;;23.98;57.21;100803.05;1744876;81;20908;-42
2022/07/16 07:40:49;;;;;;;2.02;1.50;;;;;;;23.97;57.71;100815.90;1744286;82;20952;-41
2022/07/16 07:43:16;;;;;;;2.00;1.40;;;;;;;24.02;56.44;100805.05;1750958;81;22075;-45
2022/07/16 07:45:43;;;;;;;1.52;1.42;;;;;;;24.16;54.60;100806.72;1735888;82;21018;-43
2022/07/16 07:48:11;;;;;;;1.05;1.05;;;;;;;24.16;53.83;100808.03;1746352;81;21030;-45
2022/07/16 07:50:39;;;;;;;4.37;0.75;;;;;;;24.19;52.64;100815.75;1740607;80;21026;-44
2022/07/16 07:53:06;;;;;;;8.13;1.20;;;;;;;24.18;52.38;100813.56;1750609;81;21055;-42
2022/07/16 07:55:33;;;;;;;6.67;0.98;;;;;;;24.34;54.26;100810.67;1741024;81;21360;-42
2022/07/16 07:58:00;;;;;;;1.50;1.10;;;;;;;24.49;53.18;100810.05;1754736;81;20984;-45
2022/07/16 08:00:27;;;;;;;2.00;0.88;;;;;;;24.53;52.52;100801.43;1749763;81;21034;-44
2022/07/16 08:02:55;;;;;;;1.25;0.70;;;;;;;24.60;51.73;100810.60;1750169;81;21018;-45
2022/07/16 08:05:22;;;;;;;3.72;1.12;;;;;;;24.53;50.27;100814.66;1715173;83;20959;-41
2022/07/16 08:07:49;;;;;;;1.90;0.90;;;;;;;24.46;51.11;100811.60;1749603;81;21428;-44
2022/07/16 08:10:16;;;;;;;3.50;1.00;;;;;;;24.57;50.85;100812.16;1748796;81;20982;-44
2022/07/16 08:12:43;;;;;;;0.88;0.88;;;;;;;24.83;50.81;100809.44;1744731;81;21026;-43
2022/07/16 08:15:11;;;;;;;1.07;1.07;;;;;;;25.06;48.10;100804.25;1742928;81;20980;-43
2022/07/16 08:17:39;;;;;;;5.28;1.25;;;;;;;25.13;48.37;100809.44;1746901;81;20979;-43
2022/07/16 08:20:08;;;;;;;3.85;1.12;;;;;;;24.87;49.89;100818.02;1741503;81;21120;-41
2022/07/16 08:22:35;;;;;;;2.87;1.05;;;;;;;24.57;49.81;100804.22;1741768;82;21471;-42
2022/07/16 08:27:48;;;;;;;8.08;1.15;;;;;;;24.76;50.33;100811.72;1739606;81;20991;-43
2022/07/16 08:30:14;;;;;;;4.62;0.90;;;;;;;24.79;50.19;100809.30;1737539;81;21054;-44
2022/07/16 08:32:42;;;;;;;4.65;1.20;;;;;;;24.94;51.22;100809.51;1736003;81;21172;-42
2022/07/16 08:35:09;;;;;;;2.42;1.30;;;;;;;25.12;50.82;100802.45;1737941;81;21012;-43
2022/07/16 08:37:38;;;;;;;1.27;1.00;;;;;;;25.18;48.79;100808.64;1728628;81;20968;-43
2022/07/16 08:40:09;;;;;;;1.87;1.45;;;;;;;25.22;49.09;100803.47;1734235;82;20940;-43
2022/07/16 08:42:37;;;;;;;1.95;1.82;;;;;;;25.34;50.08;100802.17;1727859;82;21084;-43
2022/07/16 08:45:06;;;;;;;2.40;1.00;;;;;;;25.29;50.38;100803.00;1740369;81;21370;-43
2022/07/16 08:47:34;;;;;;;1.52;1.10;;;;;;;25.10;49.73;100799.94;1734376;82;21051;-43
2022/07/16 08:50:02;;;;;;;6.95;1.72;;;;;;;24.86;49.84;100795.97;1731571;82;20971;-43
2022/07/16 08:52:29;;;;;;;3.70;1.07;;;;;;;24.63;50.38;100791.89;1722099;82;20956;-43
2022/07/16 08:54:56;;;;;;;2.92;2.22;;;;;;;24.64;50.35;100797.55;1734987;82;21043;-43
2022/07/16 08:57:24;;;;;;;1.20;1.10;;;;;;;24.70;50.93;100799.37;1729836;82;21311;-42
2022/07/16 08:59:52;;;;;;;2.70;1.30;;;;;;;24.74;50.66;100800.83;1737493;81;21504;-42
2022/07/16 09:02:18;;;;;;;1.75;1.05;;;;;;;24.74;51.23;100798.19;1732142;82;21064;-42
2022/07/16 09:04:45;;;;;;;8.65;1.20;;;;;;;24.91;50.02;100796.50;1737177;82;20948;-43
2022/07/16 09:07:15;;;;;;;3.17;1.20;;;;;;;24.99;50.82;100793.27;1726857;81;21055;-43
2022/07/16 09:09:43;;;;;;;1.80;0.93;;;;;;;25.11;48.75;100792.83;1733088;82;21054;-43
2022/07/16 09:12:33;;;;;;;3.87;1.17;;;;;;;25.24;48.64;100790.10;1714190;82;21534;-43
2022/07/16 09:15:02;;;;;;;3.33;1.25;;;;;;;25.42;49.50;100794.51;1710180;82;21017;-43
2022/07/16 09:17:31;;;;;;;3.00;1.20;;;;;;;25.68;47.40;100786.39;1724490;82;21540;-43
2022/07/16 09:19:57;;;;;;;2.92;1.00;;;;;;;25.75;47.25;100790.24;1711630;82;21015;-43
2022/07/16 09:22:24;;;;;;;1.05;1.02;;;;;;;25.89;47.45;100779.03;1732528;81;21304;-43
2022/07/16 09:24:52;;;;;;;1.77;1.00;;;;;;;26.00;45.51;100787.00;1744087;81;20964;-43
2022/07/16 09:27:25;;;;;;;1.70;1.20;;;;;;;25.82;45.86;100787.47;1737110;81;20987;-43
2022/07/16 09:30:05;;;;;;;2.58;1.20;;;;;;;25.82;47.59;100783.98;1721506;81;20985;-43
2022/07/16 09:32:36;;;;;;;;;;;;;;;25.96;47.02;100780.25;1723166;82;21002;-43
2022/07/16 09:35:14;;;;;;;1.00;1.00;;;;;;;25.98;46.98;100770.37;1714716;82;21203;-42
2022/07/16 09:37:55;;;;;;;2.02;1.52;;;;;;;26.19;45.89;100767.84;1708826;82;21552;-42
2022/07/16 09:40:39;;;;;;;1.30;1.20;;;;;;;26.37;45.99;100778.77;1718773;82;20980;-43
2022/07/16 09:43:17;;;;;;;1.67;1.27;;;;;;;26.37;45.06;100769.48;1704654;82;21541;-42
2022/07/16 09:45:49;;;;;;;1.40;0.93;;;;;;;26.44;44.52;100770.34;1720294;82;21589;-42
2022/07/16 09:48:21;;;;;;;8.88;1.50;;;;;;;26.65;46.04;100769.06;1715334;82;21711;-43
2022/07/16 09:50:49;;;;;;;3.52;1.20;;;;;;;26.93;45.02;100776.96;1722169;81;20940;-43
2022/07/16 09:53:21;;;;;;;2.80;1.20;;;;;;;27.13;43.41;100786.88;1708746;82;21043;-42
2022/07/16 09:56:08;;;;;;;1.67;1.10;;;;;;;27.05;43.21;100772.44;1717732;82;20967;-42
2022/07/16 09:58:36;;;;;;;3.58;1.12;;;;;;;26.99;44.38;100776.91;1712018;82;20980;-42
2022/07/16 10:01:05;;;;;;;3.35;1.07;;;;;;;27.15;44.17;100769.83;1700279;81;21540;-42
2022/07/16 10:03:32;;;;;;;2.65;1.00;;;;;;;27.32;42.33;100767.56;1730242;81;21030;-42
2022/07/16 10:05:59;;;;;;;0.98;0.98;;;;;;;27.41;42.71;100770.79;1718481;81;21046;-42
2022/07/16 10:08:26;;;;;;;5.65;1.00;;;;;;;27.45;41.88;100761.58;1714135;81;21059;-42
2022/07/16 10:10:53;;;;;;;1.27;1.17;;;;;;;27.61;43.12;100766.45;1719090;81;20949;-42
2022/07/16 10:13:25;;;;;;;2.60;1.00;;;;;;;27.73;41.35;100763.22;1707094;81;21065;-43
2022/07/16 10:15:53;;;;;;;6.20;1.15;;;;;;;27.80;41.00;100759.04;1722766;81;20983;-43
2022/07/16 10:18:41;;;;;;;10.18;1.20;;;;;;;28.00;42.59;100757.78;1722471;81;20968;-43
2022/07/16 10:21:20;;;;;;;1.22;1.10;;;;;;;28.02;41.63;100754.50;1701937;83;21690;-43
2022/07/16 10:24:06;;;;;;;2.55;1.12;;;;;;;27.95;41.51;100759.51;1716010;81;20988;-43
2022/07/16 10:26:33;;;;;;;2.50;1.40;;;;;;;28.15;39.66;100759.61;1725085;81;22130;-43
2022/07/16 10:29:00;;;;;;;2.85;2.08;;;;;;;28.42;41.46;100758.11;1733191;82;20945;-43
2022/07/16 10:31:32;;;;;;;4.35;1.45;;;;;;;28.47;41.45;100747.06;1725063;81;20992;-43
2022/07/16 10:34:20;;;;;;;10.78;1.75;;;;;;;28.33;40.71;100753.63;1724484;81;21009;-43
2022/07/16 10:36:54;;;;;;;5.28;1.60;;;;;;;28.01;41.57;100758.13;1724756;81;21489;-43
2022/07/16 10:39:23;;;;;;;1.95;1.25;;;;;;;27.65;43.11;100765.20;1724165;81;21845;-43
2022/07/16 10:43:23;;;;;;;3.25;1.35;;;;;;;27.34;44.88;100758.98;1790727;78;22534;-41
2022/07/16 10:46:01;;;;;;;1.37;1.15;;;;;;;27.36;44.33;100758.36;1750683;80;21558;-42
2022/07/16 10:48:38;;;;;;;4.20;2.10;;;;;;;27.58;45.40;100750.77;1711918;83;21129;-42
2022/07/16 10:51:23;;;;;;;5.92;3.62;;;;;;;28.05;44.37;100750.73;1702931;83;21011;-43
2022/07/16 10:54:18;;;;;;;3.33;1.47;;;;;;;28.36;42.96;100751.52;1679534;84;21026;-42
2022/07/16 10:56:48;;;;;;;5.20;1.40;;;;;;;28.10;41.77;100758.64;1680844;84;20949;-42
2022/07/16 10:59:19;;;;;;;4.30;1.80;;;;;;;27.63;44.62;100764.97;1668758;82;21289;-43
2022/07/16 11:01:48;;;;;;;1.35;1.25;;;;;;;27.71;43.09;100757.66;1698182;84;21840;-43
2022/07/16 11:04:15;;;;;;;7.33;1.25;;;;;;;27.66;43.01;100754.92;1693246;84;21023;-42
2022/07/16 11:06:50;;;;;;;6.33;1.30;;;;;;;27.65;42.76;100748.39;1693271;84;21043;-43
2022/07/16 11:09:27;;;;;;;10.72;1.42;;;;;;;27.77;42.88;100748.67;1686810;84;21591;-42
2022/07/16 11:11:55;;;;;;;1.67;1.30;;;;;;;27.92;42.97;100743.00;1694910;84;20971;-43
2022/07/16 11:14:29;;;;;;;1.85;1.75;;;;;;;28.08;42.16;100748.63;1695209;83;21078;-42
2022/07/16 11:16:57;;;;;;;1.72;1.27;;;;;;;28.11;41.14;100739.55;1693907;84;20991;-44
2022/07/16 11:19:25;;;;;;;6.60;2.95;;;;;;;28.04;42.75;100741.91;1699235;82;21075;-43
2022/07/16 11:22:01;;;;;;;6.67;1.70;;;;;;;27.98;42.70;100753.09;1687812;84;21018;-43
2022/07/16 11:24:28;;;;;;;5.20;1.40;;;;;;;28.03;41.48;100740.70;1702666;82;20975;-41
2022/07/16 11:26:56;;;;;;;3.33;1.77;;;;;;;28.13;41.15;100740.25;1699584;84;21762;-43
2022/07/16 11:29:24;;;;;;;5.28;2.12;;;;;;;28.17;41.20;100733.70;1682882;83;20980;-43
2022/07/16 11:31:51;;;;;;;4.28;1.32;;;;;;;28.15;41.18;100738.77;1694873;84;21019;-43
2022/07/16 11:34:19;;;;;;;4.42;1.25;;;;;;;28.09;38.96;100738.84;1694096;84;21026;-43
2022/07/16 11:36:48;;;;;;;4.87;2.90;;;;;;;28.15;39.46;100737.44;1697393;84;21010;-43
2022/07/16 11:39:18;;;;;;;8.10;5.25;;;;;;;28.05;39.44;100736.94;1693542;82;21047;-42